Dunn, Texas
Current Conditions -  °F | °C
As of 10:35 PM on Saturday 25 Oct 2014 (Local Time) from KSNK Reporting Station
Clear Clear  
Wind Chill: 67°   Ceiling: Unl
Heat Index: 67°   Visibility: 10mi
Dew Point: 50°   Wind: 8mph
Humidity: 54%   Direction: 170°S
Pressure: 30.1"   Gusts: NA
Location:  32.57°N, 100.89°W
Report Text: KSNK 260335Z AUTO 17007KT 10SM CLR 20/10 A3010 RMK AO2 T01970102
Loading
Personal Weather Stations






























Interactive Weather Map
Tropical Storm Tracking
New forecast layout! Learn more

10-Day Weather Forecast

Advertisements
Track Severe Weather on mobile